sensor_id;sensor_type;location;lat;lon;timestamp;pressure;altitude;pressure_sealevel;temperature;humidity
80180;BME280;69505;52.134;5.438;2023-12-20T00:01:03;101781.97;;;5.23;100.00
80180;BME280;69505;52.134;5.438;2023-12-20T00:03:29;101771.69;;;5.17;100.00
80180;BME280;69505;52.134;5.438;2023-12-20T00:06:08;101771.44;;;5.23;100.00
80180;BME280;69505;52.134;5.438;2023-12-20T00:08:35;101767.22;;;5.19;100.00
80180;BME280;69505;52.134;5.438;2023-12-20T00:11:01;101764.75;;;5.14;100.00
80180;BME280;69505;52.134;5.438;2023-12-20T00:13:28;101757.97;;;5.08;100.00
80180;BME280;69505;52.134;5.438;2023-12-20T00:15:55;101769.53;;;5.04;100.00
80180;BME280;69505;52.134;5.438;2023-12-20T00:18:21;101757.22;;;5.05;100.00
80180;BME280;69505;52.134;5.438;2023-12-20T00:20:48;101756.56;;;5.00;100.00
80180;BME280;69505;52.134;5.438;2023-12-20T00:23:14;101748.88;;;4.94;100.00
80180;BME280;69505;52.134;5.438;2023-12-20T00:25:41;101761.31;;;4.90;100.00
80180;BME280;69505;52.134;5.438;2023-12-20T00:28:08;101753.28;;;4.93;100.00
80180;BME280;69505;52.134;5.438;2023-12-20T00:30:34;101746.53;;;4.86;100.00
80180;BME280;69505;52.134;5.438;2023-12-20T00:33:01;101753.91;;;4.76;100.00
80180;BME280;69505;52.134;5.438;2023-12-20T00:35:28;101759.25;;;4.75;100.00
80180;BME280;69505;52.134;5.438;2023-12-20T00:37:55;101758.38;;;4.74;100.00
80180;BME280;69505;52.134;5.438;2023-12-20T00:40:22;101762.03;;;4.70;100.00
80180;BME280;69505;52.134;5.438;2023-12-20T00:42:48;101754.09;;;4.72;100.00
80180;BME280;69505;52.134;5.438;2023-12-20T00:45:15;101753.28;;;4.70;100.00
80180;BME280;69505;52.134;5.438;2023-12-20T00:47:42;101760.66;;;4.60;100.00
80180;BME280;69505;52.134;5.438;2023-12-20T00:50:09;101754.53;;;4.59;100.00
80180;BME280;69505;52.134;5.438;2023-12-20T00:52:36;101752.09;;;4.55;100.00
80180;BME280;69505;52.134;5.438;2023-12-20T00:55:03;101753.28;;;4.46;100.00
80180;BME280;69505;52.134;5.438;2023-12-20T00:57:31;101750.53;;;4.49;100.00
80180;BME280;69505;52.134;5.438;2023-12-20T00:59:58;101762.84;;;4.48;100.00
80180;BME280;69505;52.134;5.438;2023-12-20T01:02:24;101757.72;;;4.45;100.00
80180;BME280;69505;52.134;5.438;2023-12-20T01:04:51;101753.56;;;4.38;100.00
80180;BME280;69505;52.134;5.438;2023-12-20T01:07:18;101753.69;;;4.35;100.00
80180;BME280;69505;52.134;5.438;2023-12-20T01:09:45;101749.31;;;4.34;100.00
80180;BME280;69505;52.134;5.438;2023-12-20T01:12:11;101741.25;;;4.39;100.00
80180;BME280;69505;52.134;5.438;2023-12-20T01:14:38;101736.00;;;4.39;100.00
80180;BME280;69505;52.134;5.438;2023-12-20T01:17:06;101742.03;;;4.42;100.00
80180;BME280;69505;52.134;5.438;2023-12-20T01:19:33;101743.16;;;4.35;100.00
80180;BME280;69505;52.134;5.438;2023-12-20T01:21:59;101737.06;;;4.35;100.00
80180;BME280;69505;52.134;5.438;2023-12-20T01:24:26;101742.47;;;4.30;100.00
80180;BME280;69505;52.134;5.438;2023-12-20T01:26:52;101749.44;;;4.31;100.00
80180;BME280;69505;52.134;5.438;2023-12-20T01:29:19;101760.03;;;4.30;100.00
80180;BME280;69505;52.134;5.438;2023-12-20T01:31:46;101758.25;;;4.30;100.00
80180;BME280;69505;52.134;5.438;2023-12-20T01:34:12;101762.88;;;4.47;100.00
80180;BME280;69505;52.134;5.438;2023-12-20T01:36:39;101763.00;;;4.44;100.00
80180;BME280;69505;52.134;5.438;2023-12-20T01:39:06;101766.19;;;4.54;100.00
80180;BME280;69505;52.134;5.438;2023-12-20T01:41:50;101759.94;;;4.56;100.00
80180;BME280;69505;52.134;5.438;2023-12-20T01:44:17;101758.16;;;4.57;100.00
80180;BME280;69505;52.134;5.438;2023-12-20T01:46:43;101754.50;;;4.61;100.00
80180;BME280;69505;52.134;5.438;2023-12-20T01:49:10;101743.22;;;4.57;100.00
80180;BME280;69505;52.134;5.438;2023-12-20T01:51:37;101741.47;;;4.58;100.00
80180;BME280;69505;52.134;5.438;2023-12-20T01:54:04;101742.41;;;4.55;100.00
80180;BME280;69505;52.134;5.438;2023-12-20T01:56:31;101749.41;;;4.56;100.00
80180;BME280;69505;52.134;5.438;2023-12-20T01:58:59;101755.41;;;4.60;100.00
80180;BME280;69505;52.134;5.438;2023-12-20T02:01:27;101750.25;;;4.57;100.00
80180;BME280;69505;52.134;5.438;2023-12-20T02:03:55;101737.16;;;4.55;100.00
80180;BME280;69505;52.134;5.438;2023-12-20T02:06:24;101739.88;;;4.54;100.00
80180;BME280;69505;52.134;5.438;2023-12-20T02:08:55;101748.88;;;4.46;100.00
80180;BME280;69505;52.134;5.438;2023-12-20T02:11:23;101746.38;;;4.43;100.00
80180;BME280;69505;52.134;5.438;2023-12-20T02:13:51;101738.28;;;4.50;100.00
80180;BME280;69505;52.134;5.438;2023-12-20T02:16:17;101739.16;;;4.48;100.00
80180;BME280;69505;52.134;5.438;2023-12-20T02:18:44;101743.41;;;4.53;100.00
80180;BME280;69505;52.134;5.438;2023-12-20T02:21:11;101739.63;;;4.60;100.00
80180;BME280;69505;52.134;5.438;2023-12-20T02:23:38;101731.66;;;4.61;100.00
80180;BME280;69505;52.134;5.438;2023-12-20T02:26:05;101735.84;;;4.67;100.00
80180;BME280;69505;52.134;5.438;2023-12-20T02:28:33;101732.28;;;4.68;100.00
80180;BME280;69505;52.134;5.438;2023-12-20T02:31:00;101735.69;;;4.72;100.00
80180;BME280;69505;52.134;5.438;2023-12-20T02:33:26;101726.09;;;4.71;100.00
80180;BME280;69505;52.134;5.438;2023-12-20T02:35:53;101728.75;;;4.69;100.00
80180;BME280;69505;52.134;5.438;2023-12-20T02:38:20;101728.00;;;4.65;100.00
80180;BME280;69505;52.134;5.438;2023-12-20T02:40:46;101727.97;;;4.67;100.00
80180;BME280;69505;52.134;5.438;2023-12-20T02:43:15;101727.78;;;4.72;100.00
80180;BME280;69505;52.134;5.438;2023-12-20T02:45:42;101722.47;;;4.73;100.00
80180;BME280;69505;52.134;5.438;2023-12-20T02:48:09;101718.00;;;4.75;100.00
80180;BME280;69505;52.134;5.438;2023-12-20T02:50:36;101713.66;;;4.74;100.00
80180;BME280;69505;52.134;5.438;2023-12-20T02:53:02;101711.75;;;4.78;100.00
80180;BME280;69505;52.134;5.438;2023-12-20T02:55:29;101710.91;;;4.77;100.00
80180;BME280;69505;52.134;5.438;2023-12-20T02:57:56;101715.38;;;4.75;100.00
80180;BME280;69505;52.134;5.438;2023-12-20T03:00:22;101711.19;;;4.70;100.00
80180;BME280;69505;52.134;5.438;2023-12-20T03:02:49;101704.28;;;4.67;100.00
80180;BME280;69505;52.134;5.438;2023-12-20T03:05:16;101707.72;;;4.69;100.00
80180;BME280;69505;52.134;5.438;2023-12-20T03:07:43;101716.34;;;4.73;100.00
80180;BME280;69505;52.134;5.438;2023-12-20T03:10:10;101702.09;;;4.78;100.00
80180;BME280;69505;52.134;5.438;2023-12-20T03:12:49;101698.31;;;4.85;100.00
80180;BME280;69505;52.134;5.438;2023-12-20T03:15:15;101700.16;;;4.83;100.00
80180;BME280;69505;52.134;5.438;2023-12-20T03:17:42;101690.47;;;4.84;100.00
80180;BME280;69505;52.134;5.438;2023-12-20T03:20:09;101695.34;;;4.93;100.00
80180;BME280;69505;52.134;5.438;2023-12-20T03:22:36;101700.47;;;4.98;100.00
80180;BME280;69505;52.134;5.438;2023-12-20T03:25:02;101685.63;;;4.95;100.00
80180;BME280;69505;52.134;5.438;2023-12-20T03:27:29;101680.31;;;4.97;100.00
80180;BME280;69505;52.134;5.438;2023-12-20T03:29:56;101674.19;;;4.96;100.00
80180;BME280;69505;52.134;5.438;2023-12-20T03:32:22;101677.50;;;5.01;100.00
80180;BME280;69505;52.134;5.438;2023-12-20T03:34:49;101677.25;;;5.07;100.00
80180;BME280;69505;52.134;5.438;2023-12-20T03:37:15;101685.19;;;5.06;100.00
80180;BME280;69505;52.134;5.438;2023-12-20T03:39:42;101678.78;;;5.13;100.00
80180;BME280;69505;52.134;5.438;2023-12-20T03:42:09;101688.13;;;5.20;100.00
80180;BME280;69505;52.134;5.438;2023-12-20T03:44:38;101689.72;;;5.24;100.00
80180;BME280;69505;52.134;5.438;2023-12-20T03:47:06;101688.81;;;5.25;100.00
80180;BME280;69505;52.134;5.438;2023-12-20T03:49:32;101691.00;;;5.36;100.00
80180;BME280;69505;52.134;5.438;2023-12-20T03:51:59;101690.06;;;5.37;100.00
80180;BME280;69505;52.134;5.438;2023-12-20T03:54:26;101691.06;;;5.35;100.00
80180;BME280;69505;52.134;5.438;2023-12-20T03:56:52;101687.78;;;5.29;100.00
80180;BME280;69505;52.134;5.438;2023-12-20T03:59:20;101686.72;;;5.34;100.00
80180;BME280;69505;52.134;5.438;2023-12-20T04:01:46;101684.16;;;5.32;100.00
80180;BME280;69505;52.134;5.438;2023-12-20T04:04:13;101687.53;;;5.36;100.00
80180;BME280;69505;52.134;5.438;2023-12-20T04:06:40;101686.84;;;5.31;100.00
80180;BME280;69505;52.134;5.438;2023-12-20T04:09:07;101688.38;;;5.36;100.00
80180;BME280;69505;52.134;5.438;2023-12-20T04:11:36;101678.69;;;5.37;100.00
80180;BME280;69505;52.134;5.438;2023-12-20T04:14:03;101687.28;;;5.42;100.00
80180;BME280;69505;52.134;5.438;2023-12-20T04:16:31;101683.50;;;5.47;100.00
80180;BME280;69505;52.134;5.438;2023-12-20T04:18:58;101671.06;;;5.51;100.00
80180;BME280;69505;52.134;5.438;2023-12-20T04:21:24;101671.19;;;5.48;100.00
80180;BME280;69505;52.134;5.438;2023-12-20T04:23:51;101671.47;;;5.42;100.00
80180;BME280;69505;52.134;5.438;2023-12-20T04:26:17;101667.91;;;5.43;100.00
80180;BME280;69505;52.134;5.438;2023-12-20T04:28:44;101671.31;;;5.45;100.00
80180;BME280;69505;52.134;5.438;2023-12-20T04:31:10;101668.97;;;5.59;100.00
80180;BME280;69505;52.134;5.438;2023-12-20T04:33:37;101680.09;;;5.66;100.00
80180;BME280;69505;52.134;5.438;2023-12-20T04:36:04;101682.53;;;5.70;100.00
80180;BME280;69505;52.134;5.438;2023-12-20T04:38:31;101681.53;;;5.73;100.00
80180;BME280;69505;52.134;5.438;2023-12-20T04:40:57;101680.69;;;5.73;100.00
80180;BME280;69505;52.134;5.438;2023-12-20T04:43:24;101677.72;;;5.80;100.00
80180;BME280;69505;52.134;5.438;2023-12-20T04:45:51;101670.72;;;5.79;100.00
80180;BME280;69505;52.134;5.438;2023-12-20T04:48:18;101670.03;;;5.76;100.00
80180;BME280;69505;52.134;5.438;2023-12-20T04:50:45;101681.28;;;5.79;100.00
80180;BME280;69505;52.134;5.438;2023-12-20T04:53:11;101673.63;;;5.94;100.00
80180;BME280;69505;52.134;5.438;2023-12-20T04:55:38;101670.97;;;5.95;100.00
80180;BME280;69505;52.134;5.438;2023-12-20T04:58:05;101668.41;;;5.92;100.00
80180;BME280;69505;52.134;5.438;2023-12-20T05:00:32;101663.91;;;5.96;100.00
80180;BME280;69505;52.134;5.438;2023-12-20T05:02:59;101666.47;;;5.97;100.00
80180;BME280;69505;52.134;5.438;2023-12-20T05:05:25;101660.94;;;6.03;100.00
80180;BME280;69505;52.134;5.438;2023-12-20T05:07:52;101663.50;;;6.05;100.00
80180;BME280;69505;52.134;5.438;2023-12-20T05:10:19;101671.31;;;6.06;100.00
80180;BME280;69505;52.134;5.438;2023-12-20T05:12:45;101674.53;;;6.13;100.00
80180;BME280;69505;52.134;5.438;2023-12-20T05:15:12;101663.28;;;6.09;100.00
80180;BME280;69505;52.134;5.438;2023-12-20T05:17:38;101657.97;;;6.11;100.00
80180;BME280;69505;52.134;5.438;2023-12-20T05:20:06;101669.41;;;6.10;100.00
80180;BME280;69505;52.134;5.438;2023-12-20T05:22:33;101663.03;;;6.16;100.00
80180;BME280;69505;52.134;5.438;2023-12-20T05:24:59;101663.09;;;6.14;100.00
80180;BME280;69505;52.134;5.438;2023-12-20T05:27:26;101659.72;;;6.10;100.00
80180;BME280;69505;52.134;5.438;2023-12-20T05:29:52;101670.00;;;6.17;100.00
80180;BME280;69505;52.134;5.438;2023-12-20T05:32:19;101666.56;;;6.15;100.00
80180;BME280;69505;52.134;5.438;2023-12-20T05:34:45;101668.28;;;6.16;100.00
80180;BME280;69505;52.134;5.438;2023-12-20T05:37:12;101668.16;;;6.19;100.00
80180;BME280;69505;52.134;5.438;2023-12-20T05:39:39;101659.50;;;6.15;100.00
80180;BME280;69505;52.134;5.438;2023-12-20T05:42:06;101673.34;;;6.20;100.00
80180;BME280;69505;52.134;5.438;2023-12-20T05:44:32;101661.03;;;6.21;100.00
80180;BME280;69505;52.134;5.438;2023-12-20T05:46:59;101664.59;;;6.20;100.00
80180;BME280;69505;52.134;5.438;2023-12-20T05:49:25;101659.16;;;6.23;100.00
80180;BME280;69505;52.134;5.438;2023-12-20T05:51:52;101662.88;;;6.19;100.00
80180;BME280;69505;52.134;5.438;2023-12-20T05:54:19;101663.88;;;6.16;100.00
80180;BME280;69505;52.134;5.438;2023-12-20T05:56:45;101668.16;;;6.19;100.00
80180;BME280;69505;52.134;5.438;2023-12-20T05:59:12;101670.56;;;6.23;100.00
80180;BME280;69505;52.134;5.438;2023-12-20T06:01:39;101659.84;;;6.28;100.00
80180;BME280;69505;52.134;5.438;2023-12-20T06:04:05;101671.16;;;6.30;100.00
80180;BME280;69505;52.134;5.438;2023-12-20T06:06:32;101664.16;;;6.29;100.00
80180;BME280;69505;52.134;5.438;2023-12-20T06:08:59;101667.75;;;6.28;100.00
80180;BME280;69505;52.134;5.438;2023-12-20T06:11:26;101664.03;;;6.32;100.00
80180;BME280;69505;52.134;5.438;2023-12-20T06:13:52;101668.38;;;6.33;100.00
80180;BME280;69505;52.134;5.438;2023-12-20T06:16:19;101667.59;;;6.31;100.00
80180;BME280;69505;52.134;5.438;2023-12-20T06:18:46;101649.84;;;6.35;100.00
80180;BME280;69505;52.134;5.438;2023-12-20T06:21:13;101651.75;;;6.31;100.00
80180;BME280;69505;52.134;5.438;2023-12-20T06:23:41;101652.56;;;6.33;100.00
80180;BME280;69505;52.134;5.438;2023-12-20T06:26:08;101657.03;;;6.31;100.00
80180;BME280;69505;52.134;5.438;2023-12-20T06:28:34;101653.34;;;6.35;100.00
80180;BME280;69505;52.134;5.438;2023-12-20T06:31:03;101650.47;;;6.40;100.00
80180;BME280;69505;52.134;5.438;2023-12-20T06:33:30;101652.22;;;6.41;100.00
80180;BME280;69505;52.134;5.438;2023-12-20T06:35:57;101650.34;;;6.43;100.00
80180;BME280;69505;52.134;5.438;2023-12-20T06:38:24;101655.34;;;6.49;100.00
80180;BME280;69505;52.134;5.438;2023-12-20T06:40:50;101651.03;;;6.46;100.00
80180;BME280;69505;52.134;5.438;2023-12-20T06:43:17;101658.06;;;6.47;100.00
80180;BME280;69505;52.134;5.438;2023-12-20T06:46:03;101653.56;;;6.49;100.00
80180;BME280;69505;52.134;5.438;2023-12-20T06:48:30;101649.19;;;6.48;100.00
80180;BME280;69505;52.134;5.438;2023-12-20T06:51:00;101643.22;;;6.45;100.00
80180;BME280;69505;52.134;5.438;2023-12-20T06:53:26;101626.88;;;6.56;100.00
80180;BME280;69505;52.134;5.438;2023-12-20T06:55:53;101623.59;;;6.50;100.00
80180;BME280;69505;52.134;5.438;2023-12-20T06:58:20;101628.97;;;6.49;100.00
80180;BME280;69505;52.134;5.438;2023-12-20T07:00:46;101639.34;;;6.52;100.00
80180;BME280;69505;52.134;5.438;2023-12-20T07:03:13;101643.72;;;6.53;100.00
80180;BME280;69505;52.134;5.438;2023-12-20T07:05:40;101624.25;;;6.56;100.00
80180;BME280;69505;52.134;5.438;2023-12-20T07:08:07;101635.59;;;6.58;100.00
80180;BME280;69505;52.134;5.438;2023-12-20T07:10:33;101637.22;;;6.60;100.00
80180;BME280;69505;52.134;5.438;2023-12-20T07:13:00;101638.06;;;6.61;100.00
80180;BME280;69505;52.134;5.438;2023-12-20T07:15:27;101652.03;;;6.63;100.00
80180;BME280;69505;52.134;5.438;2023-12-20T07:17:55;101632.50;;;6.67;100.00
80180;BME280;69505;52.134;5.438;2023-12-20T07:20:22;101618.22;;;6.71;100.00
80180;BME280;69505;52.134;5.438;2023-12-20T07:22:49;101633.28;;;6.69;100.00
80180;BME280;69505;52.134;5.438;2023-12-20T07:25:16;101629.78;;;6.68;100.00
80180;BME280;69505;52.134;5.438;2023-12-20T07:27:42;101624.75;;;6.64;100.00
80180;BME280;69505;52.134;5.438;2023-12-20T07:30:11;101628.94;;;6.68;100.00
80180;BME280;69505;52.134;5.438;2023-12-20T07:32:38;101621.09;;;6.66;100.00
80180;BME280;69505;52.134;5.438;2023-12-20T07:35:04;101625.34;;;6.69;100.00
80180;BME280;69505;52.134;5.438;2023-12-20T07:37:32;101622.66;;;6.70;100.00
80180;BME280;69505;52.134;5.438;2023-12-20T07:39:58;101624.50;;;6.68;100.00
80180;BME280;69505;52.134;5.438;2023-12-20T07:42:25;101608.38;;;6.75;100.00
80180;BME280;69505;52.134;5.438;2023-12-20T07:44:51;101626.84;;;6.75;100.00
80180;BME280;69505;52.134;5.438;2023-12-20T07:47:18;101638.09;;;6.78;100.00
80180;BME280;69505;52.134;5.438;2023-12-20T07:49:48;101617.75;;;6.80;100.00
80180;BME280;69505;52.134;5.438;2023-12-20T07:52:15;101629.75;;;6.87;100.00
80180;BME280;69505;52.134;5.438;2023-12-20T07:54:42;101638.88;;;6.80;100.00
80180;BME280;69505;52.134;5.438;2023-12-20T07:57:09;101639.75;;;6.81;100.00
80180;BME280;69505;52.134;5.438;2023-12-20T07:59:39;101645.59;;;6.87;100.00
80180;BME280;69505;52.134;5.438;2023-12-20T08:02:05;101651.00;;;6.84;100.00
80180;BME280;69505;52.134;5.438;2023-12-20T08:04:33;101644.88;;;6.84;100.00
80180;BME280;69505;52.134;5.438;2023-12-20T08:06:59;101651.59;;;6.91;100.00
80180;BME280;69505;52.134;5.438;2023-12-20T08:09:26;101648.84;;;6.93;100.00
80180;BME280;69505;52.134;5.438;2023-12-20T08:11:53;101667.28;;;6.94;100.00
80180;BME280;69505;52.134;5.438;2023-12-20T08:14:19;101662.06;;;6.93;100.00
80180;BME280;69505;52.134;5.438;2023-12-20T08:16:46;101663.00;;;6.91;100.00
80180;BME280;69505;52.134;5.438;2023-12-20T08:19:13;101668.28;;;6.91;100.00
80180;BME280;69505;52.134;5.438;2023-12-20T08:21:40;101649.50;;;6.98;100.00
80180;BME280;69505;52.134;5.438;2023-12-20T08:24:07;101646.81;;;6.99;100.00
80180;BME280;69505;52.134;5.438;2023-12-20T08:26:34;101646.81;;;6.99;100.00
80180;BME280;69505;52.134;5.438;2023-12-20T08:29:01;101643.56;;;6.93;100.00
80180;BME280;69505;52.134;5.438;2023-12-20T08:31:28;101644.06;;;7.01;100.00
80180;BME280;69505;52.134;5.438;2023-12-20T08:33:56;101641.34;;;7.02;100.00
80180;BME280;69505;52.134;5.438;2023-12-20T08:36:23;101638.00;;;6.99;100.00
80180;BME280;69505;52.134;5.438;2023-12-20T08:38:50;101637.88;;;7.02;100.00
80180;BME280;69505;52.134;5.438;2023-12-20T08:41:18;101637.16;;;6.98;100.00
80180;BME280;69505;52.134;5.438;2023-12-20T08:43:44;101637.69;;;7.05;100.00
80180;BME280;69505;52.134;5.438;2023-12-20T08:46:11;101642.84;;;7.08;100.00
80180;BME280;69505;52.134;5.438;2023-12-20T08:48:38;101637.47;;;7.09;100.00
80180;BME280;69505;52.134;5.438;2023-12-20T08:51:05;101637.63;;;7.06;100.00
80180;BME280;69505;52.134;5.438;2023-12-20T08:53:36;101636.84;;;7.04;100.00
80180;BME280;69505;52.134;5.438;2023-12-20T08:56:03;101638.53;;;7.05;100.00
80180;BME280;69505;52.134;5.438;2023-12-20T08:58:29;101638.00;;;6.99;100.00
80180;BME280;69505;52.134;5.438;2023-12-20T09:00:56;101638.16;;;6.96;100.00
80180;BME280;69505;52.134;5.438;2023-12-20T09:03:24;101645.31;;;6.94;100.00
80180;BME280;69505;52.134;5.438;2023-12-20T09:05:51;101635.03;;;6.87;100.00
80180;BME280;69505;52.134;5.438;2023-12-20T09:08:17;101640.44;;;6.84;100.00
80180;BME280;69505;52.134;5.438;2023-12-20T09:10:44;101636.13;;;6.83;100.00
80180;BME280;69505;52.134;5.438;2023-12-20T09:13:11;101635.34;;;6.81;100.00
80180;BME280;69505;52.134;5.438;2023-12-20T09:15:38;101637.25;;;6.78;100.00
80180;BME280;69505;52.134;5.438;2023-12-20T09:18:04;101636.19;;;6.82;100.00
80180;BME280;69505;52.134;5.438;2023-12-20T09:20:31;101628.31;;;6.80;100.00
80180;BME280;69505;52.134;5.438;2023-12-20T09:22:59;101626.63;;;6.79;100.00
80180;BME280;69505;52.134;5.438;2023-12-20T09:25:26;101632.63;;;6.83;100.00
80180;BME280;69505;52.134;5.438;2023-12-20T09:27:53;101628.31;;;6.80;100.00
80180;BME280;69505;52.134;5.438;2023-12-20T09:30:20;101628.03;;;6.86;100.00
80180;BME280;69505;52.134;5.438;2023-12-20T09:32:56;101626.09;;;6.90;100.00
80180;BME280;69505;52.134;5.438;2023-12-20T09:35:23;101624.97;;;6.96;100.00
80180;BME280;69505;52.134;5.438;2023-12-20T09:37:50;101627.53;;;6.97;100.00
80180;BME280;69505;52.134;5.438;2023-12-20T09:40:20;101627.00;;;7.08;100.00
80180;BME280;69505;52.134;5.438;2023-12-20T09:45:14;101637.16;;;7.16;100.00
80180;BME280;69505;52.134;5.438;2023-12-20T09:47:43;101635.47;;;7.15;100.00
80180;BME280;69505;52.134;5.438;2023-12-20T09:50:10;101637.81;;;7.21;100.00
80180;BME280;69505;52.134;5.438;2023-12-20T09:52:39;101635.78;;;7.26;100.00
80180;BME280;69505;52.134;5.438;2023-12-20T09:55:06;101642.63;;;7.30;100.00
80180;BME280;69505;52.134;5.438;2023-12-20T09:57:34;101625.69;;;7.34;100.00
80180;BME280;69505;52.134;5.438;2023-12-20T10:00:00;101623.56;;;7.41;100.00
80180;BME280;69505;52.134;5.438;2023-12-20T10:02:27;101625.06;;;7.46;100.00
80180;BME280;69505;52.134;5.438;2023-12-20T10:04:54;101645.03;;;7.52;100.00
80180;BME280;69505;52.134;5.438;2023-12-20T10:07:21;101649.25;;;7.56;100.00
80180;BME280;69505;52.134;5.438;2023-12-20T10:09:51;101644.72;;;7.58;100.00
80180;BME280;69505;52.134;5.438;2023-12-20T10:12:20;101644.56;;;7.61;100.00
80180;BME280;69505;52.134;5.438;2023-12-20T10:14:47;101647.81;;;7.66;100.00
80180;BME280;69505;52.134;5.438;2023-12-20T10:17:13;101651.47;;;7.64;100.00
80180;BME280;69505;52.134;5.438;2023-12-20T10:19:40;101656.63;;;7.67;100.00
80180;BME280;69505;52.134;5.438;2023-12-20T10:22:07;101649.47;;;7.69;100.00
80180;BME280;69505;52.134;5.438;2023-12-20T10:24:33;101654.03;;;7.65;100.00
80180;BME280;69505;52.134;5.438;2023-12-20T10:27:04;101640.75;;;7.67;100.00
80180;BME280;69505;52.134;5.438;2023-12-20T10:29:35;101639.72;;;7.69;100.00
80180;BME280;69505;52.134;5.438;2023-12-20T10:32:26;101634.13;;;7.76;100.00
80180;BME280;69505;52.134;5.438;2023-12-20T10:34:54;101632.25;;;7.78;100.00
80180;BME280;69505;52.134;5.438;2023-12-20T10:37:21;101635.34;;;7.86;100.00
80180;BME280;69505;52.134;5.438;2023-12-20T10:39:53;101623.75;;;7.88;100.00
80180;BME280;69505;52.134;5.438;2023-12-20T10:42:26;101629.22;;;7.85;100.00
80180;BME280;69505;52.134;5.438;2023-12-20T10:44:53;101623.22;;;7.82;100.00
80180;BME280;69505;52.134;5.438;2023-12-20T10:47:20;101627.19;;;7.90;100.00
80180;BME280;69505;52.134;5.438;2023-12-20T10:49:47;101624.13;;;7.98;100.00
80180;BME280;69505;52.134;5.438;2023-12-20T10:52:16;101615.44;;;7.96;100.00
80180;BME280;69505;52.134;5.438;2023-12-20T10:54:44;101624.59;;;7.89;100.00
80180;BME280;69505;52.134;5.438;2023-12-20T10:57:11;101619.00;;;7.95;100.00
80180;BME280;69505;52.134;5.438;2023-12-20T10:59:39;101615.25;;;7.99;100.00
80180;BME280;69505;52.134;5.438;2023-12-20T11:02:06;101623.03;;;8.02;100.00
80180;BME280;69505;52.134;5.438;2023-12-20T11:04:49;101611.16;;;8.09;100.00
80180;BME280;69505;52.134;5.438;2023-12-20T11:07:25;101600.19;;;8.17;100.00
80180;BME280;69505;52.134;5.438;2023-12-20T11:12:49;101592.91;;;8.21;100.00
80180;BME280;69505;52.134;5.438;2023-12-20T11:15:19;101604.25;;;8.23;100.00
80180;BME280;69505;52.134;5.438;2023-12-20T11:17:46;101601.38;;;8.27;100.00
80180;BME280;69505;52.134;5.438;2023-12-20T11:20:17;101612.63;;;8.31;100.00
80180;BME280;69505;52.134;5.438;2023-12-20T11:22:53;101603.84;;;8.30;100.00
80180;BME280;69505;52.134;5.438;2023-12-20T11:25:20;101594.63;;;8.22;100.00
80180;BME280;69505;52.134;5.438;2023-12-20T11:28:07;101586.84;;;8.19;100.00
80180;BME280;69505;52.134;5.438;2023-12-20T11:30:47;101585.22;;;8.16;100.00
80180;BME280;69505;52.134;5.438;2023-12-20T11:33:15;101582.09;;;8.25;100.00
80180;BME280;69505;52.134;5.438;2023-12-20T11:35:43;101591.78;;;8.42;100.00
80180;BME280;69505;52.134;5.438;2023-12-20T11:38:13;101576.22;;;8.52;100.00
80180;BME280;69505;52.134;5.438;2023-12-20T11:40:43;101578.09;;;8.66;100.00
80180;BME280;69505;52.134;5.438;2023-12-20T11:43:10;101576.78;;;8.73;100.00
80180;BME280;69505;52.134;5.438;2023-12-20T11:45:37;101568.41;;;8.65;100.00
80180;BME280;69505;52.134;5.438;2023-12-20T11:48:04;101564.09;;;8.64;100.00
80180;BME280;69505;52.134;5.438;2023-12-20T11:50:32;101557.19;;;8.61;100.00
80180;BME280;69505;52.134;5.438;2023-12-20T11:52:59;101562.56;;;8.60;99.40
80180;BME280;69505;52.134;5.438;2023-12-20T11:55:26;101558.78;;;8.64;99.75
80180;BME280;69505;52.134;5.438;2023-12-20T11:57:52;101553.50;;;8.64;99.84
80180;BME280;69505;52.134;5.438;2023-12-20T12:00:20;101550.75;;;8.65;100.00
80180;BME280;69505;52.134;5.438;2023-12-20T12:02:57;101548.97;;;8.66;98.75
80180;BME280;69505;52.134;5.438;2023-12-20T12:05:25;101547.06;;;8.68;98.06
80180;BME280;69505;52.134;5.438;2023-12-20T12:07:53;101556.72;;;8.69;97.82
80180;BME280;69505;52.134;5.438;2023-12-20T12:10:19;101557.84;;;8.65;98.77
80180;BME280;69505;52.134;5.438;2023-12-20T12:12:46;101573.84;;;8.63;98.16
80180;BME280;69505;52.134;5.438;2023-12-20T12:15:14;101560.75;;;8.60;98.89
80180;BME280;69505;52.134;5.438;2023-12-20T12:17:41;101571.25;;;8.62;97.74
80180;BME280;69505;52.134;5.438;2023-12-20T12:20:07;101574.69;;;8.64;98.73
80180;BME280;69505;52.134;5.438;2023-12-20T12:22:36;101567.50;;;8.66;98.93
80180;BME280;69505;52.134;5.438;2023-12-20T12:25:10;101572.03;;;8.64;98.67
80180;BME280;69505;52.134;5.438;2023-12-20T12:27:41;101567.50;;;8.66;97.44
80180;BME280;69505;52.134;5.438;2023-12-20T12:30:10;101563.72;;;8.70;97.93
80180;BME280;69505;52.134;5.438;2023-12-20T12:32:39;101544.25;;;8.71;98.94
80180;BME280;69505;52.134;5.438;2023-12-20T12:35:06;101538.19;;;8.69;98.64
80180;BME280;69505;52.134;5.438;2023-12-20T12:37:38;101537.41;;;8.67;98.71
80180;BME280;69505;52.134;5.438;2023-12-20T12:40:09;101534.69;;;8.68;99.00
80180;BME280;69505;52.134;5.438;2023-12-20T12:42:37;101532.22;;;8.65;99.64
80180;BME280;69505;52.134;5.438;2023-12-20T12:45:04;101523.59;;;8.62;98.86
80180;BME280;69505;52.134;5.438;2023-12-20T12:47:31;101516.41;;;8.64;98.61
80180;BME280;69505;52.134;5.438;2023-12-20T12:49:58;101511.88;;;8.66;98.87
80180;BME280;69505;52.134;5.438;2023-12-20T12:52:24;101512.03;;;8.63;99.03
80180;BME280;69505;52.134;5.438;2023-12-20T12:54:53;101506.75;;;8.63;100.00
80180;BME280;69505;52.134;5.438;2023-12-20T12:57:20;101513.84;;;8.62;100.00